Time;durP1;ratioP1;P1;durP2;ratioP2;P2;SDS_P1;SDS_P2;PMS_P1;PMS_P2;Temp;Humidity;BMP_temperature;BMP_pressure;BME280_temperature;BME280_humidity;BME280_pressure;Samples;Min_cycle;Max_cycle;Signal;HPM_P1;HPM_P2
2023/12/06 00:02:59;;;;;;;;;;;4.90;13.00;;;;;;5018453;28;19913;-78
2023/12/06 00:05:25;;;;;;;;;;;4.90;14.40;;;;;;5006403;28;20380;-78
2023/12/06 00:07:53;;;;;;;;;;;5.00;16.20;;;;;;5014891;28;19960;-74
2023/12/06 00:10:23;;;;;;;;;;;5.00;15.50;;;;;;5014343;28;19914;-74
2023/12/06 00:12:53;;;;;;;;;;;5.10;16.60;;;;;;5015627;28;19920;-74
2023/12/06 00:15:23;;;;;;;;;;;5.00;15.60;;;;;;5016112;28;19909;-74
2023/12/06 00:17:48;;;;;;;;;;;5.00;17.40;;;;;;5004761;28;19916;-74
2023/12/06 00:20:14;;;;;;;;;;;5.00;18.10;;;;;;5017502;28;19909;-74
2023/12/06 00:22:40;;;;;;;;;;;5.00;18.40;;;;;;5014918;28;19964;-75
2023/12/06 00:25:11;;;;;;;;;;;5.00;17.90;;;;;;5015138;28;19917;-75
2023/12/06 00:27:41;;;;;;;;;;;5.10;18.00;;;;;;5016684;28;19944;-74
2023/12/06 00:30:17;;;;;;;;;;;5.00;15.10;;;;;;5016898;28;19964;-74
2023/12/06 00:32:47;;;;;;;;;;;5.00;15.80;;;;;;5014530;28;19917;-74
2023/12/06 00:35:17;;;;;;;;;;;4.90;15.10;;;;;;5014527;28;20307;-74
2023/12/06 00:37:42;;;;;;;;;;;5.00;15.70;;;;;;5020621;28;20008;-74
2023/12/06 00:40:11;;;;;;;;;;;5.00;14.80;;;;;;5014369;28;19976;-74
2023/12/06 00:42:37;;;;;;;;;;;5.00;14.40;;;;;;5018764;28;19936;-74
2023/12/06 00:45:02;;;;;;;;;;;5.00;15.00;;;;;;5014130;28;20360;-74
2023/12/06 00:47:29;;;;;;;;;;;5.10;15.60;;;;;;5016717;28;19917;-74
2023/12/06 00:49:55;;;;;;;;;;;5.10;13.70;;;;;;5015238;28;19925;-75
2023/12/06 00:52:20;;;;;;;;;;;5.20;12.80;;;;;;5014676;28;20057;-74
2023/12/06 00:54:53;;;;;;;;;;;5.20;12.30;;;;;;5014266;28;19910;-74
2023/12/06 00:57:19;;;;;;;;;;;5.10;11.10;;;;;;5018036;28;20000;-74
2023/12/06 00:59:44;;;;;;;;;;;5.20;8.50;;;;;;5014278;28;20380;-74
2023/12/06 01:02:10;;;;;;;;;;;5.20;8.50;;;;;;5015194;28;19910;-75
2023/12/06 01:04:36;;;;;;;;;;;5.20;7.50;;;;;;5014214;28;19984;-74
2023/12/06 01:07:05;;;;;;;;;;;5.20;7.00;;;;;;5014114;28;20265;-74
2023/12/06 01:09:31;;;;;;;;;;;5.20;6.20;;;;;;5019211;28;20051;-74
2023/12/06 01:12:05;;;;;;;;;;;;;;;;;;5021394;28;19952;-74
2023/12/06 01:14:30;;;;;;;;;;;5.10;5.90;;;;;;5013029;28;19918;-74
2023/12/06 01:16:59;;;;;;;;;;;5.10;6.10;;;;;;5015846;28;19917;-74
2023/12/06 01:19:25;;;;;;;;;;;5.10;6.80;;;;;;5007816;28;19945;-74
2023/12/06 01:21:51;;;;;;;;;;;;;;;;;;5014230;28;19984;-74
2023/12/06 01:30:22;;;;;;;;;;;5.00;7.40;;;;;;5013409;28;19923;-78
2023/12/06 01:38:53;;;;;;;;;;;5.00;9.40;;;;;;5033035;28;19948;-78
2023/12/06 01:41:19;;;;;;;;;;;5.00;10.50;;;;;;5020165;28;19953;-78
2023/12/06 01:43:53;;;;;;;;;;;5.00;9.50;;;;;;5022747;28;20016;-78
2023/12/06 01:46:19;;;;;;;;;;;5.00;9.40;;;;;;5023388;28;19917;-78
2023/12/06 01:48:46;;;;;;;;;;;4.90;9.70;;;;;;5016677;28;19917;-78
2023/12/06 01:54:15;;;;;;;;;;;4.80;11.30;;;;;;5009859;28;19999;-78
2023/12/06 01:56:44;;;;;;;;;;;4.90;13.50;;;;;;5024005;28;19968;-78
2023/12/06 02:08:20;;;;;;;;;;;;;;;;;;5005730;28;19924;-78
2023/12/06 02:10:53;;;;;;;;;;;4.90;11.90;;;;;;5016894;28;20351;-79
2023/12/06 02:13:35;;;;;;;;;;;4.90;11.50;;;;;;5021147;28;19960;-78
2023/12/06 02:16:11;;;;;;;;;;;5.00;12.50;;;;;;5017463;28;19918;-78
2023/12/06 02:21:29;;;;;;;;;;;5.10;9.70;;;;;;5008181;28;19921;-78
2023/12/06 02:23:56;;;;;;;;;;;5.10;6.80;;;;;;5015271;28;19925;-75
2023/12/06 02:26:29;;;;;;;;;;;5.10;6.30;;;;;;5032967;28;20016;-74
2023/12/06 02:28:55;;;;;;;;;;;5.00;5.40;;;;;;5016341;28;19917;-74
2023/12/06 02:31:23;;;;;;;;;;;5.00;6.40;;;;;;5015943;28;19917;-74
2023/12/06 02:33:54;;;;;;;;;;;5.00;6.20;;;;;;5022575;28;19913;-74
2023/12/06 02:36:20;;;;;;;;;;;5.00;7.50;;;;;;5027927;28;19913;-74
2023/12/06 02:38:59;;;;;;;;;;;5.00;7.70;;;;;;5031592;28;19916;-74
2023/12/06 02:41:25;;;;;;;;;;;5.10;8.20;;;;;;5016382;28;20320;-74
2023/12/06 02:43:51;;;;;;;;;;;5.10;7.20;;;;;;5021128;28;19917;-74
2023/12/06 02:46:24;;;;;;;;;;;5.20;4.80;;;;;;5015612;28;20387;-74
2023/12/06 02:48:49;;;;;;;;;;;5.20;4.20;;;;;;5026031;28;19918;-74
2023/12/06 02:51:15;;;;;;;;;;;;;;;;;;5016194;28;20265;-74
2023/12/06 02:56:47;;;;;;;;;;;5.20;5.10;;;;;;5015953;28;19921;-78
2023/12/06 02:59:13;;;;;;;;;;;5.20;4.40;;;;;;5017956;28;19956;-78
2023/12/06 03:01:38;;;;;;;;;;;5.30;4.00;;;;;;5014612;28;19921;-78
2023/12/06 03:07:06;;;;;;;;;;;5.40;1.80;;;;;;5010320;28;20000;-78
2023/12/06 03:12:35;;;;;;;;;;;5.50;1.00;;;;;;5015040;28;19920;-78
2023/12/06 03:18:04;;;;;;;;;;;5.50;1.00;;;;;;5007861;28;19964;-78
2023/12/06 03:23:32;;;;;;;;;;;5.60;1.00;;;;;;5002728;28;19936;-75
2023/12/06 03:25:58;;;;;;;;;;;5.50;1.00;;;;;;5007668;28;20347;-75
2023/12/06 03:28:29;;;;;;;;;;;;;;;;;;5016221;28;20015;-74
2023/12/06 03:30:54;;;;;;;;;;;5.50;1.00;;;;;;5005892;28;19921;-74
2023/12/06 03:33:29;;;;;;;;;;;5.50;1.00;;;;;;5011706;28;19913;-74
2023/12/06 03:35:55;;;;;;;;;;;5.40;1.00;;;;;;5008484;28;19910;-74
2023/12/06 03:38:20;;;;;;;;;;;5.40;1.00;;;;;;5017520;28;19935;-74
2023/12/06 03:40:47;;;;;;;;;;;5.40;1.00;;;;;;5026310;28;20024;-74
2023/12/06 03:43:17;;;;;;;;;;;;;;;;;;5028648;28;19913;-74
2023/12/06 03:45:47;;;;;;;;;;;5.30;1.00;;;;;;5007510;28;20333;-74
2023/12/06 03:48:17;;;;;;;;;;;5.30;1.00;;;;;;5014756;28;19914;-74
2023/12/06 03:50:43;;;;;;;;;;;5.40;1.00;;;;;;5015273;28;19964;-74
2023/12/06 03:53:11;;;;;;;;;;;5.40;1.00;;;;;;5019832;28;19909;-74
2023/12/06 03:55:59;;;;;;;;;;;5.30;1.00;;;;;;5023898;28;19956;-74
2023/12/06 03:58:24;;;;;;;;;;;5.30;1.00;;;;;;5012643;28;19913;-74
2023/12/06 04:00:53;;;;;;;;;;;;;;;;;;5014702;28;19913;-74
2023/12/06 04:03:29;;;;;;;;;;;5.30;1.00;;;;;;5013960;28;19910;-75
2023/12/06 04:05:55;;;;;;;;;;;5.30;1.00;;;;;;5029154;28;19909;-74
2023/12/06 04:08:23;;;;;;;;;;;5.40;1.00;;;;;;5014668;28;20023;-74
2023/12/06 04:10:49;;;;;;;;;;;5.40;1.00;;;;;;5014367;28;19916;-74
2023/12/06 04:13:17;;;;;;;;;;;5.40;1.00;;;;;;5014718;28;19913;-75
2023/12/06 04:15:43;;;;;;;;;;;5.50;1.00;;;;;;5018813;28;19917;-74
2023/12/06 04:18:08;;;;;;;;;;;5.50;1.00;;;;;;5024944;28;19936;-74
2023/12/06 04:20:35;;;;;;;;;;;5.40;1.00;;;;;;5013897;28;19945;-74
2023/12/06 04:23:11;;;;;;;;;;;5.40;1.00;;;;;;5005439;28;19918;-74
2023/12/06 04:25:59;;;;;;;;;;;5.40;1.00;;;;;;5011644;28;19964;-78
2023/12/06 04:28:47;;;;;;;;;;;5.40;1.00;;;;;;5000499;28;19921;-78
2023/12/06 04:31:17;;;;;;;;;;;5.50;1.00;;;;;;5004882;28;19957;-78
2023/12/06 04:33:47;;;;;;;;;;;5.40;1.00;;;;;;5014137;28;19910;-78
2023/12/06 04:36:13;;;;;;;;;;;5.30;1.00;;;;;;5013291;28;20008;-78
2023/12/06 04:41:41;;;;;;;;;;;5.40;1.00;;;;;;5015806;28;19923;-74
2023/12/06 04:44:07;;;;;;;;;;;;;;;;;;5014166;28;19913;-74
2023/12/06 04:46:33;;;;;;;;;;;5.40;1.00;;;;;;5010889;28;19918;-74
2023/12/06 04:48:59;;;;;;;;;;;5.40;1.00;;;;;;5018460;28;20364;-74
2023/12/06 04:51:25;;;;;;;;;;;5.50;1.00;;;;;;5015744;28;19954;-75
2023/12/06 04:53:54;;;;;;;;;;;5.40;1.00;;;;;;5014395;28;19914;-75
2023/12/06 04:56:19;;;;;;;;;;;5.40;1.00;;;;;;5007232;28;19910;-80
2023/12/06 04:58:45;;;;;;;;;;;5.50;1.00;;;;;;5011528;28;19917;-79
2023/12/06 05:04:41;;;;;;;;;;;5.50;1.00;;;;;;5013086;28;19916;-78
2023/12/06 05:07:23;;;;;;;;;;;5.50;1.00;;;;;;4999503;28;19914;-77
2023/12/06 05:12:52;;;;;;;;;;;5.60;1.00;;;;;;5007283;28;20280;-77
2023/12/06 05:15:41;;;;;;;;;;;5.50;1.00;;;;;;5001904;28;19910;-77
2023/12/06 05:18:29;;;;;;;;;;;5.60;1.00;;;;;;5018200;28;19944;-79
2023/12/06 05:21:11;;;;;;;;;;;5.50;1.00;;;;;;5016173;28;19914;-78
2023/12/06 05:26:40;;;;;;;;;;;5.50;1.00;;;;;;5017669;28;19916;-79
2023/12/06 05:35:12;;;;;;;;;;;5.40;1.00;;;;;;5010966;28;20391;-79
2023/12/06 05:40:40;;;;;;;;;;;5.50;1.00;;;;;;5003904;28;19932;-75
2023/12/06 05:43:35;;;;;;;;;;;5.40;1.00;;;;;;4998097;28;20369;-79
2023/12/06 05:52:08;;;;;;;;;;;5.50;1.00;;;;;;5011272;28;19921;-81
2023/12/06 05:57:37;;;;;;;;;;;5.40;1.00;;;;;;5016808;28;19917;-79
2023/12/06 06:03:06;;;;;;;;;;;5.50;1.00;;;;;;5036805;28;19916;-79
2023/12/06 06:05:31;;;;;;;;;;;5.50;1.00;;;;;;5026587;28;20331;-79
2023/12/06 06:08:05;;;;;;;;;;;5.40;1.00;;;;;;5020325;28;19909;-79
2023/12/06 06:10:35;;;;;;;;;;;;;;;;;;5025611;28;19936;-79
2023/12/06 06:13:01;;;;;;;;;;;5.40;1.00;;;;;;5016653;28;19914;-79
2023/12/06 06:15:26;;;;;;;;;;;5.40;1.00;;;;;;5027833;28;19913;-81
2023/12/06 06:39:12;;;;;;;;;;;5.10;1.00;;;;;;5015658;28;20044;-79
2023/12/06 06:44:40;;;;;;;;;;;5.10;1.00;;;;;;5007815;28;19925;-79
2023/12/06 06:47:06;;;;;;;;;;;5.00;1.00;;;;;;5029275;28;19910;-79
2023/12/06 06:49:47;;;;;;;;;;;5.00;1.00;;;;;;5019834;28;19964;-79
2023/12/06 06:55:47;;;;;;;;;;;4.90;1.00;;;;;;5020582;28;20387;-79
2023/12/06 07:04:21;;;;;;;;;;;4.80;1.00;;;;;;5015753;28;19956;-80
2023/12/06 07:06:49;;;;;;;;;;;4.60;1.00;;;;;;5030446;28;19997;-81
2023/12/06 07:09:14;;;;;;;;;;;4.60;1.00;;;;;;5014975;28;19917;-76
2023/12/06 07:14:47;;;;;;;;;;;4.50;1.00;;;;;;5015312;28;19924;-76
2023/12/06 07:20:41;;;;;;;;;;;4.40;1.00;;;;;;5015393;28;19917;-76
2023/12/06 07:23:18;;;;;;;;;;;4.30;1.00;;;;;;5014335;28;20381;-76
2023/12/06 07:26:18;;;;;;;;;;;4.40;1.00;;;;;;5026311;28;19916;-76
2023/12/06 07:28:44;;;;;;;;;;;4.30;1.00;;;;;;5014917;28;19917;-75
2023/12/06 07:31:18;;;;;;;;;;;;;;;;;;5008348;28;20532;-75
2023/12/06 07:33:44;;;;;;;;;;;4.20;1.00;;;;;;5010272;28;20361;-75
2023/12/06 07:36:11;;;;;;;;;;;;;;;;;;5015478;28;19910;-75
2023/12/06 07:39:11;;;;;;;;;;;4.20;1.00;;;;;;5014354;28;19918;-75
2023/12/06 07:41:41;;;;;;;;;;;4.00;1.00;;;;;;5008599;28;19924;-76
2023/12/06 07:44:11;;;;;;;;;;;;;;;;;;5014741;28;19914;-77
2023/12/06 07:46:48;;;;;;;;;;;4.00;1.00;;;;;;5014391;28;19921;-77
2023/12/06 07:52:06;;;;;;;;;;;4.00;1.00;;;;;;5014609;28;19924;-76
2023/12/06 07:54:41;;;;;;;;;;;3.90;1.00;;;;;;5015294;28;19914;-76
2023/12/06 07:59:55;;;;;;;;;;;3.80;1.00;;;;;;5017434;28;19945;-76
2023/12/06 08:02:29;;;;;;;;;;;3.90;1.00;;;;;;5013988;28;20289;-76
2023/12/06 08:05:19;;;;;;;;;;;3.90;1.00;;;;;;5025405;28;20009;-76
2023/12/06 08:08:17;;;;;;;;;;;3.90;1.00;;;;;;5014024;28;19990;-76
2023/12/06 08:13:47;;;;;;;;;;;3.90;1.00;;;;;;5015021;28;19932;-75
2023/12/06 08:16:13;;;;;;;;;;;4.10;1.00;;;;;;5014770;28;19925;-76
2023/12/06 08:18:53;;;;;;;;;;;4.10;1.00;;;;;;5014137;28;19961;-76
2023/12/06 08:21:55;;;;;;;;;;;4.00;1.00;;;;;;5014683;28;19910;-75
2023/12/06 08:24:20;;;;;;;;;;;4.10;1.00;;;;;;5003471;28;20291;-76
2023/12/06 08:26:59;;;;;;;;;;;4.10;1.00;;;;;;5015257;28;20004;-75
2023/12/06 08:29:41;;;;;;;;;;;4.10;1.00;;;;;;5012791;28;19925;-75
2023/12/06 08:32:29;;;;;;;;;;;4.20;1.00;;;;;;4995096;28;19921;-75
2023/12/06 08:35:01;;;;;;;;;;;4.00;1.00;;;;;;5007072;28;19910;-74
2023/12/06 08:37:29;;;;;;;;;;;4.00;1.00;;;;;;5014457;28;19957;-75
2023/12/06 08:40:12;;;;;;;;;;;4.10;1.00;;;;;;5013531;28;19921;-75
2023/12/06 08:42:47;;;;;;;;;;;4.20;1.00;;;;;;4999659;28;19917;-76
2023/12/06 08:45:13;;;;;;;;;;;4.20;1.00;;;;;;5014268;28;19918;-75
2023/12/06 08:47:59;;;;;;;;;;;4.20;1.00;;;;;;5014203;28;19913;-75
2023/12/06 08:53:29;;;;;;;;;;;4.40;1.00;;;;;;5018027;28;20311;-75
2023/12/06 08:55:59;;;;;;;;;;;;;;;;;;5018018;28;20357;-75
2023/12/06 08:58:25;;;;;;;;;;;4.40;1.00;;;;;;5018405;28;20377;-75
2023/12/06 09:00:50;;;;;;;;;;;4.30;1.00;;;;;;5018444;28;19910;-75
2023/12/06 09:03:16;;;;;;;;;;;4.30;1.00;;;;;;5018406;28;19992;-75
2023/12/06 09:05:42;;;;;;;;;;;4.30;1.00;;;;;;5017825;28;19913;-75
2023/12/06 09:11:10;;;;;;;;;;;4.30;1.00;;;;;;5017211;28;19916;-75
2023/12/06 09:17:11;;;;;;;;;;;4.30;1.00;;;;;;5017984;28;19916;-81
2023/12/06 09:22:39;;;;;;;;;;;4.40;1.00;;;;;;5009257;28;19979;-79
2023/12/06 09:28:17;;;;;;;;;;;4.50;1.00;;;;;;5016644;28;19920;-79
2023/12/06 09:39:51;;;;;;;;;;;4.50;1.00;;;;;;5012124;28;19925;-79
2023/12/06 09:42:25;;;;;;;;;;;4.50;1.00;;;;;;5015276;28;19910;-78
2023/12/06 09:44:51;;;;;;;;;;;4.60;1.00;;;;;;5023409;28;19923;-74
2023/12/06 09:47:17;;;;;;;;;;;4.70;1.00;;;;;;5016780;28;19996;-74
2023/12/06 09:49:43;;;;;;;;;;;4.70;1.00;;;;;;5029379;28;20331;-74
2023/12/06 09:52:11;;;;;;;;;;;4.80;1.00;;;;;;5029370;28;19920;-74
2023/12/06 09:54:42;;;;;;;;;;;4.90;1.00;;;;;;5029531;28;19909;-74
2023/12/06 09:57:11;;;;;;;;;;;4.80;1.00;;;;;;5010815;28;19914;-74
2023/12/06 09:59:38;;;;;;;;;;;4.80;1.00;;;;;;5016664;28;19910;-78
2023/12/06 10:02:06;;;;;;;;;;;4.80;1.00;;;;;;5016641;28;20373;-79
2023/12/06 10:04:33;;;;;;;;;;;4.90;1.00;;;;;;5016908;28;19995;-78
2023/12/06 10:07:11;;;;;;;;;;;5.00;1.00;;;;;;5017006;28;20000;-78
2023/12/06 10:12:50;;;;;;;;;;;5.00;1.00;;;;;;5017079;28;19916;-74
2023/12/06 10:18:19;;;;;;;;;;;5.00;1.00;;;;;;5016562;28;19917;-78
2023/12/06 10:27:11;;;;;;;;;;;5.00;1.00;;;;;;5016356;28;20008;-79
2023/12/06 10:29:37;;;;;;;;;;;5.00;1.00;;;;;;5011911;28;19913;-78
2023/12/06 10:35:06;;;;;;;;;;;5.10;1.00;;;;;;5015363;28;19917;-79
2023/12/06 10:37:32;;;;;;;;;;;5.00;1.00;;;;;;5015875;28;19913;-79
2023/12/06 10:40:12;;;;;;;;;;;5.00;1.00;;;;;;5015978;28;20067;-79
2023/12/06 10:43:00;;;;;;;;;;;5.00;1.00;;;;;;5016260;28;20392;-80
2023/12/06 10:45:25;;;;;;;;;;;5.00;1.00;;;;;;5021938;28;20319;-78
2023/12/06 10:50:55;;;;;;;;;;;5.00;1.00;;;;;;5015942;28;19925;-78
2023/12/06 10:53:41;;;;;;;;;;;5.10;1.00;;;;;;5020792;28;19909;-79
2023/12/06 10:56:18;;;;;;;;;;;5.10;1.00;;;;;;5017745;28;20000;-78
2023/12/06 10:59:11;;;;;;;;;;;5.00;1.00;;;;;;5015530;28;20365;-78
2023/12/06 11:01:46;;;;;;;;;;;5.10;1.00;;;;;;5015881;28;19909;-79
2023/12/06 11:04:12;;;;;;;;;;;5.10;1.00;;;;;;5012718;28;20538;-78
2023/12/06 11:13:11;;;;;;;;;;;5.20;1.00;;;;;;5015749;28;20021;-79
2023/12/06 11:15:41;;;;;;;;;;;;;;;;;;5016711;28;19914;-78
2023/12/06 11:18:29;;;;;;;;;;;5.40;1.00;;;;;;4998076;28;19960;-78
2023/12/06 11:21:17;;;;;;;;;;;5.40;1.00;;;;;;5007688;28;19913;-78
2023/12/06 11:23:45;;;;;;;;;;;5.40;1.00;;;;;;5017232;28;19909;-79
2023/12/06 11:26:23;;;;;;;;;;;5.40;1.00;;;;;;4999616;28;19916;-79
2023/12/06 11:29:23;;;;;;;;;;;5.40;1.00;;;;;;5006370;28;19924;-80
2023/12/06 11:32:17;;;;;;;;;;;5.40;1.00;;;;;;5013732;28;19910;-78
2023/12/06 11:38:11;;;;;;;;;;;5.50;1.00;;;;;;5013860;28;19928;-79
2023/12/06 11:40:57;;;;;;;;;;;5.40;1.00;;;;;;5014871;28;19999;-78
2023/12/06 11:43:30;;;;;;;;;;;5.50;1.00;;;;;;5015120;28;19909;-78
2023/12/06 11:46:02;;;;;;;;;;;5.50;1.00;;;;;;5016136;28;19917;-78
2023/12/06 11:54:34;;;;;;;;;;;5.40;1.00;;;;;;5014811;28;19921;-78
2023/12/06 12:00:04;;;;;;;;;;;5.20;1.00;;;;;;5014643;28;19920;-74
2023/12/06 12:02:30;;;;;;;;;;;5.20;1.00;;;;;;5016724;28;20373;-74
2023/12/06 12:04:56;;;;;;;;;;;5.10;1.00;;;;;;5017538;28;19920;-74
2023/12/06 12:07:22;;;;;;;;;;;5.00;1.00;;;;;;5015375;28;20300;-74
2023/12/06 12:09:48;;;;;;;;;;;5.20;1.00;;;;;;5016635;28;19913;-74
2023/12/06 12:12:23;;;;;;;;;;;5.20;1.00;;;;;;5016956;28;19940;-74
2023/12/06 12:15:06;;;;;;;;;;;5.10;1.00;;;;;;5014593;28;19911;-74
2023/12/06 12:17:31;;;;;;;;;;;5.10;1.00;;;;;;5022334;28;20158;-74
2023/12/06 12:19:57;;;;;;;;;;;5.10;1.00;;;;;;5014074;28;19909;-74
2023/12/06 12:22:23;;;;;;;;;;;5.20;1.00;;;;;;5014117;28;19919;-74
2023/12/06 12:24:51;;;;;;;;;;;5.20;1.00;;;;;;5013167;28;19913;-74
2023/12/06 12:27:29;;;;;;;;;;;5.20;1.00;;;;;;4995644;28;20313;-75
2023/12/06 12:30:15;;;;;;;;;;;5.10;1.00;;;;;;5010342;28;19921;-78
2023/12/06 12:32:42;;;;;;;;;;;5.10;1.00;;;;;;5017346;28;19921;-78
2023/12/06 12:35:09;;;;;;;;;;;5.10;1.00;;;;;;5018543;28;19917;-79
2023/12/06 12:40:23;;;;;;;;;;;5.20;1.00;;;;;;5011083;28;20384;-76
2023/12/06 12:42:59;;;;;;;;;;;5.20;1.00;;;;;;5014333;28;19913;-76
2023/12/06 12:45:30;;;;;;;;;;;5.20;1.00;;;;;;5022377;28;19910;-79
2023/12/06 12:57:25;;;;;;;;;;;5.40;1.00;;;;;;5013933;28;20013;-79
2023/12/06 13:00:17;;;;;;;;;;;5.60;1.00;;;;;;5014362;28;19917;-79
2023/12/06 13:06:23;;;;;;;;;;;5.60;1.00;;;;;;5013326;28;19936;-79
2023/12/06 13:08:57;;;;;;;;;;;5.60;1.00;;;;;;5006539;28;19924;-79
2023/12/06 13:11:41;;;;;;;;;;;5.50;1.00;;;;;;5011908;28;20365;-79
2023/12/06 13:14:41;;;;;;;;;;;5.60;1.00;;;;;;5013804;28;19909;-79
2023/12/06 13:17:18;;;;;;;;;;;5.50;1.00;;;;;;5021766;28;19957;-79
2023/12/06 13:20:08;;;;;;;;;;;5.50;1.00;;;;;;5013550;28;19913;-79
2023/12/06 13:22:41;;;;;;;;;;;5.50;1.00;;;;;;5013626;28;19914;-79
2023/12/06 13:25:18;;;;;;;;;;;5.40;1.00;;;;;;5013245;28;20383;-78
2023/12/06 13:30:53;;;;;;;;;;;5.80;1.00;;;;;;5009996;28;19924;-78
2023/12/06 13:33:20;;;;;;;;;;;5.70;1.00;;;;;;5020615;28;19960;-78
2023/12/06 13:35:46;;;;;;;;;;;;;;;;;;4992075;28;20327;-78
2023/12/06 13:38:12;;;;;;;;;;;5.60;1.00;;;;;;5012861;28;19952;-78
2023/12/06 13:40:53;;;;;;;;;;;5.60;1.00;;;;;;5014046;28;19972;-78
2023/12/06 13:43:19;;;;;;;;;;;5.60;1.00;;;;;;5015642;28;19959;-79
2023/12/06 13:45:44;;;;;;;;;;;5.70;1.00;;;;;;5018051;28;19921;-74
2023/12/06 13:48:10;;;;;;;;;;;5.70;1.00;;;;;;5022909;28;19921;-74
2023/12/06 13:50:36;;;;;;;;;;;5.70;1.00;;;;;;5020246;28;20399;-74
2023/12/06 13:53:30;;;;;;;;;;;5.70;1.00;;;;;;5017337;28;19913;-74
2023/12/06 13:55:59;;;;;;;;;;;5.60;1.00;;;;;;5019894;28;19913;-74
2023/12/06 13:58:26;;;;;;;;;;;5.60;1.00;;;;;;5016145;28;19909;-74
2023/12/06 14:00:51;;;;;;;;;;;5.60;1.00;;;;;;5012716;28;19914;-75
2023/12/06 14:03:18;;;;;;;;;;;;;;;;;;5016166;28;20004;-74
2023/12/06 14:05:43;;;;;;;;;;;5.60;1.00;;;;;;5016645;28;20465;-74
2023/12/06 14:08:13;;;;;;;;;;;5.50;1.00;;;;;;5025093;28;19960;-75
2023/12/06 14:10:41;;;;;;;;;;;5.60;1.00;;;;;;5014773;28;19913;-74
2023/12/06 14:13:29;;;;;;;;;;;5.60;1.00;;;;;;5016565;28;19917;-74
2023/12/06 14:15:59;;;;;;;;;;;5.60;1.00;;;;;;5019430;28;20011;-74
2023/12/06 14:18:41;;;;;;;;;;;5.70;1.00;;;;;;5016493;28;20000;-81
2023/12/06 14:21:08;;;;;;;;;;;5.60;1.00;;;;;;5016100;28;19921;-74
2023/12/06 14:23:35;;;;;;;;;;;5.60;1.00;;;;;;5016063;28;19917;-74
2023/12/06 14:26:01;;;;;;;;;;;5.60;1.00;;;;;;5017731;28;19913;-73
2023/12/06 14:28:27;;;;;;;;;;;5.60;1.00;;;;;;5023854;28;19913;-73
2023/12/06 14:30:54;;;;;;;;;;;;;;;;;;5014324;28;19913;-74
2023/12/06 14:33:19;;;;;;;;;;;5.50;1.00;;;;;;5015176;28;19920;-77
2023/12/06 14:35:45;;;;;;;;;;;5.40;1.00;;;;;;5016051;28;20004;-76
2023/12/06 14:38:11;;;;;;;;;;;5.30;1.00;;;;;;5008520;28;20017;-78
2023/12/06 14:40:37;;;;;;;;;;;;;;;;;;5018374;28;19916;-77
2023/12/06 14:43:11;;;;;;;;;;;5.30;1.00;;;;;;5016074;28;19914;-76
2023/12/06 14:45:37;;;;;;;;;;;5.30;1.00;;;;;;5016010;28;19913;-76
2023/12/06 14:48:11;;;;;;;;;;;5.40;1.00;;;;;;4996397;28;19968;-77
2023/12/06 14:50:41;;;;;;;;;;;5.40;1.00;;;;;;5023260;28;20024;-75
2023/12/06 14:53:11;;;;;;;;;;;5.40;1.00;;;;;;5016486;28;19909;-80
2023/12/06 14:55:42;;;;;;;;;;;5.40;1.00;;;;;;5038058;28;19913;-78
2023/12/06 14:58:14;;;;;;;;;;;5.30;1.00;;;;;;5020246;28;19909;-77
2023/12/06 15:00:46;;;;;;;;;;;5.20;1.00;;;;;;5015657;28;20013;-79
2023/12/06 15:03:18;;;;;;;;;;;5.20;1.00;;;;;;5015912;28;20365;-79
2023/12/06 15:05:50;;;;;;;;;;;5.30;1.00;;;;;;5015836;28;20365;-79
2023/12/06 15:08:16;;;;;;;;;;;5.30;1.00;;;;;;5015364;28;19917;-79
2023/12/06 15:10:41;;;;;;;;;;;5.30;1.00;;;;;;5006978;28;19917;-79
2023/12/06 15:13:11;;;;;;;;;;;5.10;1.00;;;;;;5014896;28;19924;-79
2023/12/06 15:16:11;;;;;;;;;;;5.10;1.00;;;;;;5015106;28;19913;-79
2023/12/06 15:18:59;;;;;;;;;;;5.00;1.00;;;;;;5011362;28;19914;-76
2023/12/06 15:21:30;;;;;;;;;;;5.10;1.00;;;;;;5002473;28;20033;-76
2023/12/06 15:24:11;;;;;;;;;;;5.10;1.00;;;;;;5015344;28;19916;-76
2023/12/06 15:26:41;;;;;;;;;;;5.10;1.00;;;;;;5015964;28;19951;-76
2023/12/06 15:29:12;;;;;;;;;;;5.00;1.00;;;;;;5014328;28;19913;-76
2023/12/06 15:31:37;;;;;;;;;;;5.00;1.00;;;;;;5015780;28;19910;-72
2023/12/06 15:34:03;;;;;;;;;;;5.10;1.00;;;;;;5015008;28;19909;-72
2023/12/06 15:36:28;;;;;;;;;;;5.10;1.00;;;;;;5006773;28;19917;-72
2023/12/06 15:38:59;;;;;;;;;;;5.10;1.00;;;;;;5014923;28;19909;-72
2023/12/06 15:41:25;;;;;;;;;;;5.20;1.00;;;;;;5014637;28;19909;-72
2023/12/06 15:43:51;;;;;;;;;;;5.10;1.00;;;;;;5017432;28;19913;-73
2023/12/06 15:46:16;;;;;;;;;;;5.10;1.00;;;;;;5020667;28;19917;-76
2023/12/06 15:52:13;;;;;;;;;;;5.00;1.00;;;;;;5018755;28;20391;-76
2023/12/06 15:54:42;;;;;;;;;;;4.90;1.00;;;;;;5029919;28;20320;-76
2023/12/06 15:57:11;;;;;;;;;;;4.80;1.00;;;;;;5002464;28;19915;-76
2023/12/06 15:59:42;;;;;;;;;;;4.80;1.00;;;;;;5014976;28;19996;-76
2023/12/06 16:02:08;;;;;;;;;;;4.70;1.00;;;;;;5014813;28;19913;-72
2023/12/06 16:04:34;;;;;;;;;;;4.80;1.00;;;;;;5014606;28;19960;-72
2023/12/06 16:06:59;;;;;;;;;;;4.80;1.00;;;;;;5022118;28;20392;-72
2023/12/06 16:09:29;;;;;;;;;;;4.80;1.00;;;;;;5019092;28;19917;-73
2023/12/06 16:11:55;;;;;;;;;;;4.90;1.00;;;;;;5022596;28;19910;-73
2023/12/06 16:14:24;;;;;;;;;;;4.80;1.00;;;;;;5018216;28;19921;-73
2023/12/06 16:17:00;;;;;;;;;;;4.80;1.00;;;;;;5015164;28;19949;-76
2023/12/06 16:23:06;;;;;;;;;;;4.90;1.00;;;;;;5014585;28;20472;-77
2023/12/06 16:25:55;;;;;;;;;;;5.00;1.00;;;;;;5028114;28;20044;-77
2023/12/06 16:28:20;;;;;;;;;;;5.10;1.00;;;;;;5024098;28;19909;-75
2023/12/06 16:30:54;;;;;;;;;;;;;;;;;;5013691;28;19917;-75
2023/12/06 16:33:30;;;;;;;;;;;5.20;1.00;;;;;;5011284;28;19932;-76
2023/12/06 16:35:57;;;;;;;;;;;5.20;1.00;;;;;;5019999;28;20256;-75
2023/12/06 16:38:54;;;;;;;;;;;5.20;1.00;;;;;;5017794;28;19928;-75
2023/12/06 16:41:36;;;;;;;;;;;5.10;1.00;;;;;;5004316;28;19913;-76
2023/12/06 16:44:01;;;;;;;;;;;5.00;1.00;;;;;;5013238;28;19913;-78
2023/12/06 16:46:27;;;;;;;;;;;5.00;1.00;;;;;;5016306;28;19917;-75
2023/12/06 16:48:52;;;;;;;;;;;5.00;1.00;;;;;;5016062;28;19968;-72
2023/12/06 16:51:18;;;;;;;;;;;4.90;1.00;;;;;;5015082;28;19917;-72
2023/12/06 16:53:43;;;;;;;;;;;4.90;1.00;;;;;;5013242;28;19921;-72
2023/12/06 16:56:09;;;;;;;;;;;4.90;1.00;;;;;;5013354;28;19979;-72
2023/12/06 16:58:35;;;;;;;;;;;4.80;1.00;;;;;;5014048;28;19956;-72
2023/12/06 17:01:00;;;;;;;;;;;4.80;1.00;;;;;;5016217;28;19921;-72
2023/12/06 17:03:36;;;;;;;;;;;4.80;1.00;;;;;;5017151;28;20011;-78
2023/12/06 17:09:04;;;;;;;;;;;4.90;1.00;;;;;;5013886;28;19968;-79
2023/12/06 17:17:35;;;;;;;;;;;4.90;1.00;;;;;;5018004;28;19963;-79
2023/12/06 17:20:06;;;;;;;;;;;5.00;1.00;;;;;;5018762;28;19957;-78
2023/12/06 17:26:05;;;;;;;;;;;5.10;1.00;;;;;;5016446;28;20020;-78
2023/12/06 17:28:42;;;;;;;;;;;5.10;1.00;;;;;;5020821;28;19913;-76
2023/12/06 17:31:07;;;;;;;;;;;5.00;1.00;;;;;;5019689;28;19920;-76
2023/12/06 17:33:36;;;;;;;;;;;5.00;1.00;;;;;;5018311;28;19913;-75
2023/12/06 17:36:01;;;;;;;;;;;5.10;1.00;;;;;;5024172;28;19920;-76
2023/12/06 17:44:33;;;;;;;;;;;5.20;1.00;;;;;;5004103;28;19921;-83
2023/12/06 17:47:13;;;;;;;;;;;5.20;1.00;;;;;;5016995;28;19929;-83
2023/12/06 17:49:41;;;;;;;;;;;5.20;1.00;;;;;;5019762;28;19925;-84
2023/12/06 17:55:12;;;;;;;;;;;5.20;1.00;;;;;;5018078;28;19964;-86
2023/12/06 17:57:59;;;;;;;;;;;5.20;1.00;;;;;;4999964;28;19967;-83
2023/12/06 18:03:37;;;;;;;;;;;5.10;1.00;;;;;;5017523;28;19963;-83
2023/12/06 18:09:05;;;;;;;;;;;5.20;1.00;;;;;;5016427;28;20075;-81
2023/12/06 18:14:54;;;;;;;;;;;5.10;1.00;;;;;;5031665;28;20419;-82
2023/12/06 18:17:48;;;;;;;;;;;5.10;1.00;;;;;;5018707;28;20359;-82
2023/12/06 18:23:16;;;;;;;;;;;5.10;1.00;;;;;;5028704;28;19955;-82
2023/12/06 18:37:55;;;;;;;;;;;4.70;1.00;;;;;;5002118;28;20292;-82
2023/12/06 18:43:23;;;;;;;;;;;4.80;1.00;;;;;;5012874;28;19951;-83
2023/12/06 18:51:42;;;;;;;;;;;4.60;1.00;;;;;;5012520;28;19933;-81
2023/12/06 19:00:13;;;;;;;;;;;4.60;1.00;;;;;;5009323;28;19963;-84
2023/12/06 19:05:42;;;;;;;;;;;4.90;1.00;;;;;;5016124;28;20277;-84
2023/12/06 19:08:07;;;;;;;;;;;4.80;1.00;;;;;;5022805;28;19910;-82
2023/12/06 19:10:36;;;;;;;;;;;4.80;1.00;;;;;;5004516;28;19960;-82
2023/12/06 19:13:12;;;;;;;;;;;4.80;1.00;;;;;;5025595;28;19921;-82
2023/12/06 19:18:41;;;;;;;;;;;4.90;1.00;;;;;;5027899;28;19920;-83
2023/12/06 19:21:12;;;;;;;;;;;4.90;1.00;;;;;;4999080;28;19909;-83
2023/12/06 19:23:42;;;;;;;;;;;4.90;1.00;;;;;;4997869;28;19915;-84
2023/12/06 19:26:12;;;;;;;;;;;4.90;1.00;;;;;;5031082;28;19909;-83
2023/12/06 19:31:42;;;;;;;;;;;;;;;;;;5018947;28;19920;-80
2023/12/06 19:34:08;;;;;;;;;;;;;;;;;;5033070;28;19959;-74
2023/12/06 19:36:42;;;;;;;;;;;4.90;1.00;;;;;;5013103;28;19921;-76
2023/12/06 19:39:07;;;;;;;;;;;;;;;;;;5019804;28;19959;-74
2023/12/06 19:41:33;;;;;;;;;;;4.90;1.00;;;;;;5018499;28;20368;-73
2023/12/06 19:43:59;;;;;;;;;;;4.90;1.00;;;;;;5016644;28;19913;-74
2023/12/06 19:46:25;;;;;;;;;;;4.80;1.00;;;;;;5014375;28;19971;-73
2023/12/06 19:48:53;;;;;;;;;;;4.90;1.00;;;;;;5028733;28;19979;-76
2023/12/06 19:51:19;;;;;;;;;;;4.80;1.00;;;;;;5015203;28;20036;-73
2023/12/06 19:53:44;;;;;;;;;;;4.80;1.00;;;;;;5033944;28;19995;-73
2023/12/06 19:56:11;;;;;;;;;;;4.60;1.00;;;;;;5022396;28;19925;-73